CZFM/ZFM METAR and TAF weather

Enter ICAO airport designator
Station Type Date Time Source
CZFM METAR 2024/07/12 23:00 UTC NOAA

CZFM 122300Z 16009KT 130V220 15SM BKN079 OVC220 25/12 A2979 RMK AS6CS2 LAST STFD OBS/ NXT 131300Z SLP093 DENSITY ALT 1500FT


Station Type Date Time Source
CZFM Decoded METAR 2024/07/12 23:00 UTC NOAA

Fort Mcpherson Airport, Canada (CZFM) 67-24N 134-51W
Jul 12, 2024 - 07:00 PM EDT / 2024.07.12 2300 UTC
Wind: from the SSE (160 degrees) at 10 MPH (9 KT) (direction variable):0
Visibility: 15 mile(s):0
Sky conditions: overcast
Temperature: 77 F (25 C)
Dew Point: 53 F (12 C)
Relative Humidity: 44%
Pressure (altimeter): 29.79 in. Hg (1008 hPa)
ob: CZFM 122300Z 16009KT 130V220 15SM BKN079 OVC220 25/12 A2979 RMK AS6CS2 LAST STFD OBS/ NXT 131300Z SLP093 DENSITY ALT 1500FT
cycle: 23

Station Type Date Time Source
CZFM TAF 2024/07/12 19:00 UTC NOAA